Time;durP1;ratioP1;P1;durP2;ratioP2;P2;SDS_P1;SDS_P2;PMS_P1;PMS_P2;Temp;Humidity;BMP_temperature;BMP_pressure;BME280_temperature;BME280_humidity;BME280_pressure;Samples;Min_cycle;Max_cycle;Signal;HPM_P1;HPM_P2
2022/08/04 00:01:54;;;;;;;9.52;6.88;;;15.10;99.90;;;15.91;100.00;99650.94;5083690;27;119963;-78
2022/08/04 00:04:32;;;;;;;8.65;7.20;;;15.10;99.90;;;15.81;100.00;99657.66;5068451;27;129221;-77
2022/08/04 00:07:09;;;;;;;9.55;7.07;;;15.00;99.90;;;15.75;100.00;99650.81;5083528;27;129761;-77
2022/08/04 00:09:44;;;;;;;;;;;15.00;99.90;;;15.65;100.00;99648.50;5084166;27;119248;-78
2022/08/04 00:12:15;;;;;;;9.38;7.53;;;15.00;99.90;;;15.57;100.00;99660.38;5083498;27;119162;-76
2022/08/04 00:14:50;;;;;;;9.80;7.43;;;15.00;99.90;;;15.50;100.00;99652.72;5081950;27;129923;-78
2022/08/04 00:17:24;;;;;;;8.57;7.45;;;15.00;99.90;;;15.49;100.00;99661.25;5050732;27;128524;-78
2022/08/04 00:20:00;;;;;;;8.60;7.13;;;15.00;99.90;;;15.43;100.00;99656.03;5051238;27;118562;-78
2022/08/04 00:22:31;;;;;;;11.70;7.88;;;14.90;99.90;;;15.37;100.00;99665.59;5083442;27;119432;-77
2022/08/04 00:25:05;;;;;;;9.07;7.05;;;14.90;99.90;;;15.30;100.00;99665.34;5050558;27;128999;-78
2022/08/04 00:27:34;;;;;;;9.02;7.32;;;14.80;99.90;;;15.29;100.00;99666.50;5083269;27;130026;-77
2022/08/04 00:30:07;;;;;;;9.93;6.43;;;14.80;99.90;;;15.26;100.00;99665.22;5083722;27;119571;-77
2022/08/04 00:32:37;;;;;;;8.30;6.65;;;14.90;99.90;;;15.36;100.00;99663.97;5068919;27;119527;-78
2022/08/04 00:35:08;;;;;;;7.68;6.15;;;15.00;99.90;;;15.41;100.00;99666.50;5084486;27;129830;-77
2022/08/04 00:37:39;;;;;;;9.35;6.10;;;15.00;99.90;;;15.45;100.00;99661.94;5084692;27;129620;-78
2022/08/04 00:40:23;;;;;;;11.45;6.30;;;14.90;99.90;;;15.50;100.00;99662.88;5083763;27;122449;-76
2022/08/04 00:43:09;;;;;;;7.45;5.78;;;14.90;99.90;;;15.46;100.00;99668.22;5082994;27;122552;-75
2022/08/04 00:46:34;;;;;;;9.57;6.28;;;14.90;99.90;;;15.42;100.00;99673.56;5082916;27;130002;-77
2022/08/04 00:49:59;;;;;;;8.02;5.78;;;14.90;99.90;;;15.44;100.00;99674.03;5077970;27;130179;-76
2022/08/04 00:52:41;;;;;;;8.43;6.35;;;14.80;99.90;;;15.49;100.00;99674.94;5075687;27;120140;-78
2022/08/04 00:55:31;;;;;;;8.75;6.53;;;14.80;99.90;;;15.46;100.00;99674.47;5072380;27;119632;-77
2022/08/04 00:58:22;;;;;;;8.60;6.07;;;14.70;99.90;;;15.41;100.00;99669.25;5068183;27;129858;-77
2022/08/04 01:01:05;;;;;;;8.02;6.53;;;14.70;99.90;;;15.39;100.00;99668.75;5083483;27;130049;-77
2022/08/04 01:04:02;;;;;;;9.82;6.20;;;14.70;99.90;;;15.31;100.00;99663.41;5091247;27;119590;-76
2022/08/04 01:06:43;;;;;;;7.97;5.63;;;14.60;99.90;;;15.28;100.00;99673.09;5065883;27;119324;-77
2022/08/04 01:09:34;;;;;;;7.38;5.75;;;14.60;99.90;;;15.25;100.00;99679.22;5082180;27;129823;-78
2022/08/04 01:12:40;;;;;;;9.35;6.60;;;14.70;99.90;;;15.27;100.00;99666.03;5086072;27;129666;-78
2022/08/04 01:15:18;;;;;;;7.47;6.18;;;14.70;99.90;;;15.30;100.00;99676.25;5091371;27;119433;-76
2022/08/04 01:18:06;;;;;;;10.52;6.30;;;14.70;99.90;;;15.24;100.00;99666.72;5093402;27;119414;-78
2022/08/04 01:20:52;;;;;;;8.82;5.97;;;14.60;99.90;;;15.23;100.00;99662.38;5082080;27;129567;-77
2022/08/04 01:23:50;;;;;;;8.23;6.73;;;14.70;99.90;;;15.26;100.00;99670.69;5084208;27;128232;-77
2022/08/04 01:26:54;;;;;;;9.85;6.38;;;14.80;99.90;;;15.30;100.00;99676.25;5083701;27;120253;-78
2022/08/04 01:29:27;;;;;;;9.57;6.93;;;14.80;99.90;;;15.33;100.00;99672.84;5082743;27;119435;-77
2022/08/04 01:32:04;;;;;;;10.40;6.80;;;14.80;99.90;;;15.31;100.00;99677.88;5071375;27;129851;-77
2022/08/04 01:34:42;;;;;;;10.18;6.88;;;14.70;99.90;;;15.27;100.00;99672.28;5064108;27;129299;-77
2022/08/04 01:37:26;;;;;;;7.35;6.38;;;14.60;99.90;;;15.18;100.00;99685.25;5080807;27;121853;-78
2022/08/04 01:40:03;;;;;;;7.50;6.70;;;14.60;99.90;;;15.15;100.00;99679.69;5089417;27;122024;-77
2022/08/04 01:42:34;;;;;;;8.32;6.65;;;14.50;99.90;;;15.14;100.00;99675.34;5055110;27;129550;-77
2022/08/04 01:45:08;;;;;;;10.27;6.35;;;14.50;99.90;;;15.15;100.00;99666.00;5084777;27;129949;-77
2022/08/04 01:47:40;;;;;;;8.70;6.85;;;14.50;99.90;;;15.16;100.00;99682.06;5069625;27;119208;-77
2022/08/04 01:50:12;;;;;;;8.63;7.03;;;14.40;99.90;;;15.14;100.00;99678.06;5088679;27;119327;-77
2022/08/04 01:52:43;;;;;;;8.30;6.75;;;14.30;99.90;;;15.04;100.00;99669.16;5072343;27;129039;-78
2022/08/04 01:55:14;;;;;;;6.90;6.18;;;14.20;99.90;;;14.96;100.00;99672.78;5066465;27;129663;-77
2022/08/04 01:57:46;;;;;;;11.20;6.68;;;14.20;99.90;;;14.93;100.00;99662.53;5082130;27;119679;-77
2022/08/04 02:00:19;;;;;;;9.60;7.25;;;14.30;99.90;;;14.86;100.00;99673.19;5081745;27;119574;-77
2022/08/04 02:02:50;;;;;;;10.40;6.70;;;14.30;99.90;;;14.83;100.00;99669.19;5080187;27;130152;-78
2022/08/04 02:05:22;;;;;;;7.85;6.93;;;14.20;99.90;;;14.82;100.00;99672.25;5066369;27;129341;-78
2022/08/04 02:08:11;;;;;;;8.52;6.63;;;14.20;99.90;;;14.85;100.00;99660.66;5084585;27;120029;-77
2022/08/04 02:11:02;;;;;;;8.57;6.60;;;14.10;99.90;;;14.87;100.00;99663.88;5081689;27;119478;-76
2022/08/04 02:13:52;;;;;;;9.65;6.85;;;14.10;99.90;;;14.83;100.00;99673.88;5081815;27;129953;-77
2022/08/04 02:16:32;;;;;;;9.32;7.20;;;14.00;99.90;;;14.77;100.00;99664.28;5080851;27;129643;-77
2022/08/04 02:19:12;;;;;;;8.63;7.03;;;14.00;99.90;;;14.73;100.00;99669.63;5081402;27;119729;-77
2022/08/04 02:21:42;;;;;;;9.25;7.55;;;13.90;99.90;;;14.74;100.00;99666.56;5067333;27;119390;-77
2022/08/04 02:24:18;;;;;;;8.52;6.80;;;14.00;99.90;;;14.73;100.00;99670.41;5081697;27;129901;-77
2022/08/04 02:26:50;;;;;;;8.93;6.82;;;14.00;99.90;;;14.67;100.00;99660.81;5067663;27;129449;-75
2022/08/04 02:29:25;;;;;;;8.50;6.90;;;14.00;99.90;;;14.63;100.00;99665.38;5084418;27;121978;-78
2022/08/04 02:32:03;;;;;;;8.73;6.63;;;13.90;99.90;;;14.62;100.00;99658.31;5066081;27;121446;-77
2022/08/04 02:34:38;;;;;;;11.10;7.13;;;13.80;99.90;;;14.59;100.00;99658.94;5065792;27;128818;-77
2022/08/04 02:37:09;;;;;;;8.82;7.50;;;13.80;99.90;;;14.61;100.00;99659.44;5081129;27;130107;-78
2022/08/04 02:39:40;;;;;;;9.18;6.85;;;13.70;99.90;;;14.63;100.00;99659.09;5083647;27;120018;-78
2022/08/04 02:42:11;;;;;;;8.90;6.70;;;13.80;99.90;;;14.69;100.00;99666.75;5076188;27;119908;-78
2022/08/04 02:44:40;;;;;;;7.85;6.88;;;13.90;99.90;;;14.77;100.00;99664.28;5089352;27;129914;-77
2022/08/04 02:47:12;;;;;;;9.75;7.53;;;13.90;99.90;;;14.77;100.00;99667.78;5070280;27;128533;-77
2022/08/04 02:49:42;;;;;;;13.32;7.60;;;14.00;99.90;;;14.81;100.00;99654.28;5081171;27;119365;-77
2022/08/04 02:52:11;;;;;;;9.20;7.30;;;14.00;99.90;;;14.86;100.00;99656.78;5081514;27;119386;-78
2022/08/04 02:54:42;;;;;;;9.10;7.10;;;14.10;99.90;;;14.89;100.00;99661.59;5064131;27;129385;-77
2022/08/04 02:57:14;;;;;;;7.90;6.28;;;14.00;99.90;;;14.94;100.00;99664.09;5081739;27;130825;-77
2022/08/04 03:00:04;;;;;;;8.63;6.88;;;14.10;99.90;;;14.98;100.00;99664.25;5067980;27;119115;-78
2022/08/04 03:02:55;;;;;;;8.07;6.97;;;14.10;99.90;;;14.99;100.00;99655.72;5085290;27;119923;-75
2022/08/04 03:05:44;;;;;;;10.02;7.15;;;14.10;99.90;;;15.05;100.00;99659.84;5070217;27;129008;-77
2022/08/04 03:09:00;;;;;;;10.25;7.97;;;14.30;99.90;;;15.14;100.00;99669.88;5069509;27;129765;-76
2022/08/04 03:12:14;;;;;;;12.77;7.00;;;14.30;99.90;;;15.19;100.00;99665.00;5069211;27;118712;-77
2022/08/04 03:15:20;;;;;;;9.32;6.43;;;14.40;99.90;;;15.42;100.00;99667.31;5070093;27;120850;-77
2022/08/04 03:18:42;;;;;;;9.23;5.75;;;14.50;99.90;;;15.67;100.00;99668.13;5093757;27;130357;-78
2022/08/04 03:22:22;;;;;;;9.40;5.53;;;14.70;99.90;;;15.88;100.00;99667.22;5063990;27;129744;-78
2022/08/04 03:25:43;;;;;;;8.65;5.20;;;14.80;99.90;;;16.32;100.00;99664.66;5028747;27;122706;-78
2022/08/04 03:28:59;;;;;;;6.88;4.22;;;15.30;99.90;;;16.79;100.00;99675.00;5051979;27;121496;-76
2022/08/04 03:32:02;;;;;;;6.93;4.50;;;15.80;99.90;;;16.86;100.00;99678.00;5070596;27;129234;-80
2022/08/04 03:34:52;;;;;;;6.25;5.05;;;15.60;99.90;;;16.98;100.00;99673.59;5084161;27;129643;-78
2022/08/04 03:38:03;;;;;;;7.22;4.80;;;15.60;99.90;;;17.10;100.00;99673.53;5064013;27;119357;-77
2022/08/04 03:40:50;;;;;;;7.57;5.13;;;15.60;99.90;;;17.17;100.00;99681.94;5063182;27;119915;-78
2022/08/04 03:44:10;;;;;;;7.15;4.97;;;15.60;99.90;;;17.23;100.00;99675.06;5063883;27;129551;-78
2022/08/04 03:47:38;;;;;;;6.28;4.85;;;15.70;99.90;;;17.28;100.00;99678.69;5062122;27;130000;-79
2022/08/04 03:53:07;;;;;;;7.15;5.00;;;15.80;99.90;;;17.30;100.00;99679.16;5031119;27;119503;-78
2022/08/04 03:54:08;;;;;;;8.70;4.85;;;15.80;99.90;;;17.41;100.00;99682.94;5084475;27;120312;-78
2022/08/04 03:57:24;;;;;;;7.60;4.78;;;16.00;99.90;;;17.50;100.00;99678.09;5065998;27;129592;-79
2022/08/04 04:00:09;;;;;;;5.90;4.22;;;16.00;99.90;;;17.67;100.00;99687.09;5040397;27;130336;-78
2022/08/04 04:03:16;;;;;;;6.57;4.60;;;16.20;99.90;;;17.73;100.00;99691.16;5082874;27;119766;-78
2022/08/04 04:06:42;;;;;;;6.53;4.75;;;16.20;99.90;;;17.68;98.50;99691.44;5082484;27;119468;-78
2022/08/04 04:09:50;;;;;;;6.47;4.13;;;16.30;99.90;;;17.58;100.00;99695.53;5039398;27;130260;-77
2022/08/04 04:13:09;;;;;;;6.03;4.22;;;16.30;99.90;;;17.67;99.88;99682.44;5081583;27;129252;-78
2022/08/04 04:15:59;;;;;;;5.30;3.88;;;16.50;99.90;;;17.85;97.59;99691.06;5082538;27;119756;-77
2022/08/04 04:18:52;;;;;;;6.55;4.45;;;16.50;99.90;;;17.83;97.00;99696.13;5069620;27;118367;-77
2022/08/04 04:21:43;;;;;;;5.50;3.67;;;16.60;99.90;;;18.05;97.57;99696.66;5082238;27;131101;-78
2022/08/04 04:24:49;;;;;;;5.53;3.90;;;16.80;99.90;;;18.29;94.89;99696.44;5067196;27;129357;-77
2022/08/04 04:27:34;;;;;;;5.82;4.05;;;17.00;99.90;;;18.53;93.81;99694.59;5080839;27;121873;-79
2022/08/04 04:30:16;;;;;;;6.82;4.10;;;17.10;99.90;;;18.72;93.47;99701.25;5094506;27;121446;-79
2022/08/04 04:33:22;;;;;;;8.13;4.13;;;17.20;99.90;;;18.84;92.99;99709.38;5086590;27;129489;-78
2022/08/04 04:36:03;;;;;;;7.90;4.22;;;17.30;99.90;;;19.01;92.51;99703.44;5043806;27;127768;-79
2022/08/04 04:38:52;;;;;;;8.25;3.65;;;17.30;99.90;;;19.15;92.18;99700.16;5081845;27;119429;-77
2022/08/04 04:42:02;;;;;;;6.43;3.65;;;17.40;99.90;;;19.07;90.17;99705.88;5067606;27;119045;-75
2022/08/04 04:45:03;;;;;;;5.47;3.80;;;17.50;99.90;;;19.20;91.09;99694.38;5027122;27;129294;-77
2022/08/04 04:47:47;;;;;;;5.00;3.60;;;17.60;99.90;;;19.41;90.27;99698.66;5082108;27;129663;-79
2022/08/04 04:50:28;;;;;;;7.47;3.85;;;17.90;99.90;;;19.63;89.40;99699.81;5081810;27;119581;-79
2022/08/04 04:53:06;;;;;;;12.35;3.80;;;18.10;99.90;;;19.83;88.36;99697.03;5082184;27;120165;-79
2022/08/04 04:55:43;;;;;;;10.02;4.50;;;18.20;99.90;;;19.92;88.44;99697.56;5030687;27;1462365;-79
2022/08/04 04:58:18;;;;;;;6.65;3.53;;;18.30;99.90;;;20.04;87.59;99693.78;5064040;27;129331;-78
2022/08/04 05:01:22;;;;;;;7.00;3.78;;;18.20;99.90;;;20.07;87.52;99696.63;5081851;27;119442;-77
2022/08/04 05:04:17;;;;;;;10.00;3.92;;;18.30;99.90;;;20.09;86.68;99694.28;5080756;27;119839;-78
2022/08/04 05:07:08;;;;;;;6.85;3.30;;;18.30;99.90;;;20.29;86.75;99707.94;5066621;27;129476;-77
2022/08/04 05:09:57;;;;;;;6.30;2.90;;;18.60;99.90;;;20.42;84.50;99695.50;5084003;27;129231;-77
2022/08/04 05:12:52;;;;;;;9.05;3.20;;;18.80;99.90;;;20.64;84.01;99693.84;5084376;27;120219;-77
2022/08/04 05:15:38;;;;;;;3.92;2.45;;;19.10;99.90;;;20.83;82.04;99698.44;5076308;27;119399;-76
2022/08/04 05:18:13;;;;;;;6.85;3.03;;;19.40;99.90;;;21.00;81.61;99690.72;5085717;27;130582;-77
2022/08/04 05:20:45;;;;;;;6.75;3.00;;;19.60;99.90;;;21.08;79.49;99697.91;5085045;27;129483;-75
2022/08/04 05:23:23;;;;;;;5.45;2.67;;;19.70;99.90;;;21.00;79.38;99702.56;5080491;27;122035;-77
2022/08/04 05:25:59;;;;;;;4.60;2.80;;;19.80;99.90;;;20.90;80.31;99702.44;5082549;27;122739;-78
2022/08/04 05:28:34;;;;;;;6.35;2.70;;;19.90;99.90;;;21.01;80.92;99703.34;5082299;27;130000;-77
2022/08/04 05:31:16;;;;;;;3.90;2.60;;;19.90;99.90;;;21.15;79.88;99703.50;5082425;27;130102;-76
2022/08/04 05:33:58;;;;;;;6.03;2.80;;;20.00;99.90;;;21.44;80.00;99709.31;5067554;27;118975;-75
2022/08/04 05:36:34;;;;;;;4.82;2.40;;;20.30;99.90;;;21.62;78.80;99715.03;5083166;27;119329;-76
2022/08/04 05:39:03;;;;;;;5.00;2.40;;;20.40;99.90;;;21.74;79.17;99708.44;5068818;27;128659;-75
2022/08/04 05:41:36;;;;;;;4.72;2.45;;;20.50;99.90;;;21.86;78.53;99710.88;5082643;27;129968;-77
2022/08/04 05:44:07;;;;;;;4.72;2.50;;;20.60;99.90;;;21.79;77.21;99713.59;5082379;27;119619;-75
2022/08/04 05:46:38;;;;;;;7.25;2.70;;;20.50;99.90;;;21.78;77.41;99706.47;5067642;27;118339;-76
2022/08/04 05:49:09;;;;;;;4.50;2.20;;;20.60;99.90;;;21.98;76.16;99709.00;5082407;27;129852;-75
2022/08/04 05:51:38;;;;;;;7.07;2.20;;;20.80;99.90;;;22.02;76.10;99696.00;5082534;27;129693;-76
2022/08/04 05:54:08;;;;;;;4.90;2.22;;;20.90;99.90;;;22.19;76.83;99700.03;5082655;27;119650;-78
2022/08/04 05:56:37;;;;;;;4.57;2.25;;;21.10;99.90;;;22.40;75.87;99702.19;5082348;27;119298;-76
2022/08/04 05:59:09;;;;;;;4.25;2.25;;;21.20;99.90;;;22.64;75.03;99709.03;5064797;27;129974;-77
2022/08/04 06:01:40;;;;;;;4.57;2.55;;;21.50;99.90;;;22.47;74.04;99707.75;5082149;27;129492;-77
2022/08/04 06:04:09;;;;;;;4.03;2.00;;;21.40;99.90;;;22.56;75.12;99702.66;5082130;27;120000;-76
2022/08/04 06:06:39;;;;;;;6.00;2.50;;;21.60;99.90;;;22.71;73.99;99713.78;5082081;27;120296;-76
2022/08/04 06:09:07;;;;;;;4.35;2.08;;;21.70;99.90;;;22.80;73.23;99709.47;5081451;27;129691;-77
2022/08/04 06:11:36;;;;;;;5.10;2.08;;;21.70;99.90;;;23.00;72.95;99711.09;5066184;27;130051;-76
2022/08/04 06:14:08;;;;;;;4.43;2.22;;;22.00;99.40;;;23.30;72.51;99708.84;5080619;27;122340;-77
2022/08/04 06:16:43;;;;;;;5.45;2.30;;;22.20;99.90;;;23.48;70.82;99708.06;5081687;27;123116;-77
2022/08/04 06:19:14;;;;;;;3.80;2.00;;;22.30;95.00;;;23.59;71.69;99716.38;5081944;27;130376;-78
2022/08/04 06:21:48;;;;;;;5.07;2.58;;;22.40;98.60;;;23.71;70.10;99712.44;5081257;27;129467;-77
2022/08/04 06:24:20;;;;;;;3.55;2.20;;;22.60;95.10;;;23.77;68.89;99719.19;5063772;27;119833;-77
2022/08/04 06:26:51;;;;;;;4.15;2.08;;;22.50;88.60;;;23.87;68.64;99718.41;5081572;27;119143;-77
2022/08/04 06:29:25;;;;;;;4.28;2.22;;;22.60;86.80;;;24.10;68.40;99714.44;5082222;27;130456;-79
2022/08/04 06:32:01;;;;;;;3.88;2.40;;;22.80;79.00;;;24.11;68.30;99714.03;5082529;27;129568;-79
2022/08/04 06:34:31;;;;;;;;;;;22.80;84.60;;;24.09;67.92;99721.16;5082202;27;119841;-79
2022/08/04 06:37:00;;;;;;;5.07;2.47;;;22.90;71.10;;;24.03;68.11;99720.78;5081940;27;119252;-76
2022/08/04 06:39:30;;;;;;;4.15;2.38;;;22.80;71.60;;;24.02;67.94;99719.19;5064932;27;129267;-74
2022/08/04 06:41:59;;;;;;;3.20;2.25;;;22.80;70.50;;;23.84;68.85;99730.28;5066227;27;128065;-78
2022/08/04 06:44:30;;;;;;;4.00;2.20;;;22.60;80.70;;;24.08;69.06;99722.38;5081738;27;119502;-76
2022/08/04 06:47:01;;;;;;;4.15;2.33;;;22.90;84.80;;;24.26;67.80;99728.66;5081333;27;120582;-78
2022/08/04 06:49:32;;;;;;;4.93;2.22;;;22.90;76.80;;;24.35;68.25;99720.72;5081695;27;130125;-75
2022/08/04 06:52:03;;;;;;;4.07;2.40;;;23.20;75.70;;;24.55;66.15;99717.50;5080878;27;130041;-78
2022/08/04 06:54:31;;;;;;;3.85;2.25;;;23.20;59.30;;;24.43;67.35;99726.25;5082568;27;120238;-77
2022/08/04 06:57:02;;;;;;;4.25;2.40;;;23.10;71.00;;;24.22;68.30;99728.66;5081826;27;119595;-78
2022/08/04 06:59:31;;;;;;;4.68;2.20;;;23.00;72.30;;;24.38;68.48;99719.91;5065971;27;130324;-77
2022/08/04 07:02:02;;;;;;;4.07;2.20;;;23.20;73.60;;;24.45;67.82;99723.84;5049065;27;128914;-76
2022/08/04 07:04:31;;;;;;;4.55;2.50;;;23.10;74.70;;;24.46;68.17;99726.22;5080248;27;122978;-77
2022/08/04 07:07:00;;;;;;;4.55;2.47;;;23.40;64.40;;;24.71;67.19;99726.19;5081368;27;121582;-76
2022/08/04 07:09:29;;;;;;;4.55;2.30;;;23.40;63.50;;;24.98;66.70;99728.44;5080761;27;129890;-76
2022/08/04 07:11:57;;;;;;;6.32;2.25;;;23.70;59.50;;;24.57;67.11;99715.94;5080857;27;129774;-75
2022/08/04 07:14:27;;;;;;;4.13;2.53;;;23.30;67.00;;;24.62;67.74;99725.84;5080893;27;119632;-78
2022/08/04 07:19:44;;;;;;;4.32;2.40;;;23.40;68.40;;;24.71;67.18;99712.31;5081069;27;129981;-77
2022/08/04 07:22:13;;;;;;;3.53;2.38;;;23.50;62.70;;;24.81;66.13;99713.47;5076329;27;130087;-77
2022/08/04 07:24:43;;;;;;;3.92;2.30;;;23.60;54.60;;;24.97;66.05;99710.22;5059388;27;119448;-78
2022/08/04 07:27:11;;;;;;;4.25;2.05;;;23.80;47.90;;;25.05;66.58;99711.75;5059630;27;120050;-77
2022/08/04 07:29:41;;;;;;;6.90;2.55;;;23.80;56.30;;;24.98;65.92;99717.34;5076011;27;130107;-76
2022/08/04 07:32:12;;;;;;;4.40;2.58;;;23.60;53.70;;;25.19;65.04;99710.09;5063790;27;129580;-77
2022/08/04 07:34:43;;;;;;;3.35;2.47;;;23.80;43.90;;;25.16;65.04;99710.91;5070328;27;119962;-79
2022/08/04 07:37:12;;;;;;;4.07;2.70;;;23.90;44.30;;;24.96;66.07;99713.38;5080218;27;119742;-74
2022/08/04 07:40:01;;;;;;;3.60;2.53;;;23.80;46.20;;;25.27;65.42;99711.63;5079654;27;129779;-75
2022/08/04 07:42:48;;;;;;;3.20;2.23;;;23.90;46.00;;;25.31;64.41;99720.75;5061361;27;129635;-78
2022/08/04 07:45:20;;;;;;;4.05;2.40;;;24.10;41.00;;;25.47;63.84;99715.47;5064172;27;119767;-79
2022/08/04 07:47:49;;;;;;;5.07;2.60;;;24.00;40.90;;;25.50;64.19;99713.09;5083021;27;119514;-77
2022/08/04 07:50:20;;;;;;;3.47;2.38;;;24.10;33.70;;;25.58;64.41;99720.16;5083270;27;129674;-77
2022/08/04 07:52:49;;;;;;;4.88;2.45;;;24.20;41.10;;;25.24;64.61;99720.75;5064737;27;129939;-77
2022/08/04 07:55:18;;;;;;;3.50;2.20;;;24.10;40.90;;;25.59;64.23;99711.44;5062557;27;122495;-75
2022/08/04 07:57:47;;;;;;;4.88;2.45;;;24.50;30.50;;;25.76;62.06;99718.03;5062438;27;121721;-76
2022/08/04 08:00:16;;;;;;;4.05;2.42;;;24.40;23.70;;;26.05;62.63;99715.03;5062236;27;130289;-78
2022/08/04 08:02:48;;;;;;;3.95;2.60;;;24.60;30.00;;;25.82;62.25;99719.19;5062025;27;130327;-76
2022/08/04 08:05:20;;;;;;;3.90;2.58;;;24.50;23.10;;;25.54;63.46;99716.63;5068867;27;120741;-75
2022/08/04 08:07:50;;;;;;;3.85;2.30;;;24.30;27.60;;;25.87;63.25;99719.91;5083490;27;119717;-77
2022/08/04 08:10:19;;;;;;;4.60;2.55;;;24.60;24.60;;;26.10;61.80;99711.81;5083889;27;129934;-77
2022/08/04 08:12:48;;;;;;;5.53;2.50;;;24.80;19.80;;;25.92;60.61;99713.94;5068120;27;128919;-76
2022/08/04 08:15:18;;;;;;;4.88;2.45;;;24.40;15.00;;;26.17;61.82;99711.72;5082575;27;119562;-76
2022/08/04 08:17:46;;;;;;;4.78;2.70;;;24.60;22.90;;;26.44;59.87;99708.25;5082531;27;119370;-77
2022/08/04 08:20:15;;;;;;;3.90;2.25;;;24.90;10.50;;;26.57;60.10;99716.06;5081790;27;130925;-78
2022/08/04 08:22:45;;;;;;;5.07;2.80;;;25.10;10.70;;;26.40;59.72;99717.84;5067446;27;128631;-77
2022/08/04 08:25:13;;;;;;;4.38;2.25;;;25.00;7.60;;;26.64;59.41;99711.22;5083863;27;120122;-77
2022/08/04 08:27:42;;;;;;;6.13;2.70;;;25.10;9.70;;;26.93;58.75;99718.44;5067626;27;118330;-80
2022/08/04 08:30:12;;;;;;;6.05;2.40;;;25.30;1.00;;;26.78;58.01;99721.41;5067824;27;129814;-74
2022/08/04 08:32:41;;;;;;;4.25;2.50;;;25.30;1.00;;;26.89;60.04;99722.06;5082654;27;129459;-76
2022/08/04 08:35:10;;;;;;;5.10;2.78;;;25.40;6.90;;;27.39;56.99;99714.25;5051087;27;119104;-79
2022/08/04 08:37:45;;;;;;;4.63;2.67;;;25.70;1.00;;;27.31;56.21;99715.53;5083457;27;119027;-79
2022/08/04 08:40:27;;;;;;;;;;;25.60;1.00;;;27.26;57.55;99717.56;5067266;27;129114;-77
2022/08/04 08:43:45;;;;;;;4.05;2.40;;;25.60;1.00;;;26.87;57.48;99718.91;5081948;27;129712;-78
2022/08/04 08:47:01;;;;;;;5.88;2.53;;;25.10;1.00;;;26.71;57.64;99721.50;5062413;27;122053;-76
2022/08/04 08:50:44;;;;;;;6.38;2.72;;;25.20;1.00;;;26.95;57.35;99725.16;5019365;27;121781;-79
2022/08/04 08:53:32;;;;;;;4.60;2.55;;;25.30;1.00;;;26.87;57.45;99730.03;5047046;27;129607;-77
2022/08/04 08:56:17;;;;;;;5.75;2.63;;;25.50;1.00;;;26.92;56.93;99725.22;5029322;27;128340;-78
2022/08/04 08:59:08;;;;;;;6.05;2.50;;;25.50;1.00;;;27.27;54.74;99719.16;5046095;27;118961;-80
2022/08/04 09:01:58;;;;;;;5.80;2.40;;;25.80;1.00;;;26.87;57.25;99718.13;5046679;27;119065;-79
2022/08/04 09:05:02;;;;;;;4.55;2.60;;;25.60;1.00;;;27.41;56.20;99718.19;5061360;27;130890;-76
2022/08/04 09:08:05;;;;;;;4.30;2.72;;;25.80;1.00;;;27.46;55.74;99722.50;5062011;27;129641;-78
2022/08/04 09:10:42;;;;;;;3.10;2.25;;;25.60;1.00;;;27.78;56.53;99722.00;5046057;27;119090;-76
2022/08/04 09:13:23;;;;;;;5.10;2.58;;;26.00;1.00;;;27.32;55.47;99720.72;5061499;27;119502;-78
2022/08/04 09:16:02;;;;;;;3.80;2.60;;;25.70;1.00;;;27.41;55.04;99720.16;5060042;27;130530;-77
2022/08/04 09:18:42;;;;;;;9.10;2.60;;;25.60;1.00;;;27.50;55.11;99711.28;5081006;27;129403;-80
2022/08/04 09:21:22;;;;;;;5.95;3.08;;;25.70;1.00;;;27.16;56.50;99723.28;5082042;27;119442;-76
2022/08/04 09:24:03;;;;;;;5.78;2.70;;;25.70;1.00;;;27.62;55.51;99717.03;5081862;27;119036;-78
2022/08/04 09:26:44;;;;;;;5.28;2.75;;;26.00;1.00;;;27.87;55.40;99721.41;5063395;27;129694;-75
2022/08/04 09:29:20;;;;;;;3.80;2.83;;;26.10;1.00;;;27.61;55.44;99726.63;5081690;27;130887;-77
2022/08/04 09:31:59;;;;;;;8.38;3.00;;;26.10;1.00;;;27.54;55.40;99720.38;5082587;27;119719;-76
2022/08/04 09:34:41;;;;;;;3.80;2.70;;;25.70;1.00;;;27.71;55.75;99724.09;5067792;27;120350;-77
2022/08/04 09:37:25;;;;;;;5.72;3.03;;;26.00;1.00;;;27.83;54.30;99725.47;5061758;27;130310;-76
2022/08/04 09:40:03;;;;;;;5.85;2.75;;;26.10;1.00;;;28.30;53.40;99723.47;5080787;27;129293;-79
2022/08/04 09:42:45;;;;;;;6.00;2.70;;;26.30;1.00;;;28.17;52.98;99716.94;5081153;27;121850;-77
2022/08/04 09:45:27;;;;;;;4.30;2.75;;;26.30;1.00;;;28.14;52.34;99712.22;5050217;27;121887;-76
2022/08/04 09:48:05;;;;;;;4.25;2.67;;;26.30;1.00;;;27.77;54.71;99714.03;5081833;27;129920;-77
2022/08/04 09:50:38;;;;;;;5.35;2.83;;;26.00;1.00;;;27.76;53.80;99709.69;5066796;27;128865;-76
2022/08/04 09:53:38;;;;;;;4.43;2.80;;;26.00;1.00;;;27.34;56.59;99706.34;5082721;27;120261;-81
2022/08/04 09:56:20;;;;;;;4.82;3.00;;;25.80;1.00;;;27.21;56.49;99703.34;5067287;27;118911;-78
2022/08/04 09:59:01;;;;;;;6.18;3.33;;;25.80;1.00;;;27.38;55.90;99709.91;5082089;27;129878;-77
2022/08/04 10:01:33;;;;;;;3.90;2.67;;;25.90;1.00;;;27.21;55.45;99706.91;5082116;27;129459;-79
2022/08/04 10:04:06;;;;;;;6.70;2.97;;;25.60;1.00;;;27.52;54.21;99703.28;5064655;27;119540;-80
2022/08/04 10:06:58;;;;;;;4.45;2.80;;;25.90;1.00;;;28.14;53.56;99698.25;5081954;27;119538;-75
2022/08/04 10:09:50;;;;;;;6.15;2.88;;;26.30;1.00;;;28.67;51.24;99693.69;5063419;27;129628;-78
2022/08/04 10:12:42;;;;;;;4.40;2.67;;;26.70;1.00;;;29.14;51.77;99691.84;5081453;27;130177;-76
2022/08/04 10:15:16;;;;;;;4.90;3.17;;;27.10;1.00;;;29.63;50.30;99702.31;5081880;27;119199;-79
2022/08/04 10:18:23;;;;;;;3.38;2.40;;;27.50;1.00;;;29.44;49.77;99692.81;5066709;27;119078;-76
2022/08/04 10:21:04;;;;;;;5.57;2.40;;;27.70;1.00;;;29.21;49.37;99697.31;5081249;27;129851;-76
2022/08/04 10:23:46;;;;;;;4.60;2.95;;;27.20;1.00;;;29.57;48.66;99693.66;5081564;27;129421;-76
2022/08/04 10:26:31;;;;;;;6.63;2.58;;;27.40;1.00;;;29.20;49.59;99702.13;5066444;27;118372;-74
2022/08/04 10:29:05;;;;;;;5.38;2.78;;;27.10;1.00;;;29.37;49.41;99694.56;5081838;27;119716;-77
2022/08/04 10:31:42;;;;;;;6.28;2.50;;;27.20;1.00;;;29.85;48.41;99683.78;5079876;27;131188;-76
2022/08/04 10:34:18;;;;;;;6.93;2.60;;;27.60;1.00;;;29.80;49.26;99686.34;5081441;27;129655;-78
2022/08/04 10:36:58;;;;;;;7.15;3.15;;;27.60;1.00;;;29.76;49.19;99678.81;5080384;27;122349;-78
2022/08/04 10:39:37;;;;;;;5.88;2.50;;;27.50;1.00;;;29.62;48.90;99675.56;5081506;27;121921;-78
2022/08/04 10:42:20;;;;;;;5.20;2.88;;;27.30;1.00;;;29.36;49.57;99676.19;5080727;27;130237;-76
2022/08/04 10:45:05;;;;;;;4.95;2.80;;;27.30;1.00;;;28.81;49.81;99672.22;5065778;27;128559;-79
2022/08/04 10:47:42;;;;;;;4.70;2.50;;;26.80;1.00;;;28.78;50.37;99687.06;5081187;27;119663;-78
2022/08/04 10:50:14;;;;;;;5.35;2.88;;;26.70;1.00;;;29.47;49.82;99672.38;5066136;27;118682;-79
2022/08/04 10:52:48;;;;;;;4.97;2.70;;;27.50;1.00;;;29.63;49.50;99680.72;5081128;27;130596;-76
2022/08/04 10:55:20;;;;;;;3.72;2.33;;;27.50;1.00;;;29.60;48.75;99678.81;5083324;27;129674;-73
2022/08/04 10:57:56;;;;;;;6.90;2.78;;;27.60;1.00;;;29.15;49.46;99685.06;5066369;27;118670;-80
2022/08/04 11:00:28;;;;;;;3.95;2.60;;;27.10;1.00;;;29.51;49.26;99687.03;5081324;27;119421;-78
2022/08/04 11:03:05;;;;;;;5.40;2.60;;;27.40;1.00;;;29.80;48.69;99683.56;5079685;27;130332;-77
2022/08/04 11:05:45;;;;;;;4.10;2.70;;;27.60;1.00;;;29.99;46.18;99671.44;5081142;27;130267;-76
2022/08/04 11:08:19;;;;;;;4.00;2.58;;;27.60;1.00;;;30.40;46.83;99671.94;5081380;27;120042;-78
2022/08/04 11:10:59;;;;;;;4.68;2.60;;;28.10;1.00;;;30.26;45.70;99678.69;5081112;27;119333;-71
2022/08/04 11:13:42;;;;;;;3.83;2.60;;;27.90;1.00;;;30.44;45.83;99670.63;5081045;27;131438;-76
2022/08/04 11:16:19;;;;;;;6.43;2.70;;;27.90;1.00;;;30.29;46.46;99669.41;5080624;27;129845;-77